createdAt,value
2019-02-02T00:00:40.146Z,100.80
2019-02-02T00:01:46.900Z,101.83
2019-02-02T00:02:52.952Z,98.27
2019-02-02T00:03:58.913Z,98.37
2019-02-02T00:05:07.562Z,98.17
2019-02-02T00:06:13.383Z,90.65
2019-02-02T00:07:19.357Z,116.15
2019-02-02T00:08:25.574Z,118.63
2019-02-02T00:09:31.820Z,100.27
2019-02-02T00:10:37.977Z,113.47
2019-02-02T00:11:44.077Z,94.90
2019-02-02T00:12:50.491Z,102.13
2019-02-02T00:13:56.759Z,97.10
2019-02-02T00:15:03.108Z,101.13
2019-02-02T00:16:09.362Z,99.72
2019-02-02T00:17:15.403Z,98.85
2019-02-02T00:18:21.365Z,94.40
2019-02-02T00:19:27.559Z,93.10
2019-02-02T00:20:33.696Z,95.40
2019-02-02T00:21:40.093Z,94.03
2019-02-02T00:22:46.363Z,95.97
2019-02-02T00:23:52.734Z,95.20
2019-02-02T00:24:58.984Z,87.73
2019-02-02T00:26:05.649Z,100.60
2019-02-02T00:27:11.491Z,88.40
2019-02-02T00:28:17.689Z,87.25
2019-02-02T00:29:23.590Z,86.37
2019-02-02T00:30:29.867Z,98.17
2019-02-02T00:31:36.086Z,96.47
2019-02-02T00:32:42.182Z,91.33
2019-02-02T00:33:48.308Z,89.60
2019-02-02T00:34:54.143Z,85.60
2019-02-02T00:36:00.158Z,97.70
2019-02-02T00:37:06.271Z,88.27
2019-02-02T00:38:12.509Z,85.70
2019-02-02T00:39:18.691Z,87.65
2019-02-02T00:40:25.077Z,85.93
2019-02-02T00:41:31.490Z,101.73
2019-02-02T00:42:37.595Z,91.42
2019-02-02T00:43:43.522Z,83.60
2019-02-02T00:44:49.442Z,86.83
2019-02-02T00:45:56.475Z,89.70
2019-02-02T00:47:02.583Z,83.73
2019-02-02T00:48:08.404Z,88.78
2019-02-02T00:49:14.679Z,84.30
2019-02-02T00:50:20.778Z,85.75
2019-02-02T00:51:27.066Z,126.40
2019-02-02T00:52:33.446Z,119.63
2019-02-02T00:53:39.573Z,102.10
2019-02-02T00:54:45.642Z,93.10
2019-02-02T00:55:51.738Z,95.90
2019-02-02T00:56:58.625Z,84.13
2019-02-02T00:58:06.151Z,85.62
2019-02-02T00:59:12.328Z,87.33
2019-02-02T01:00:19.604Z,84.83
2019-02-02T01:01:25.680Z,88.78
2019-02-02T01:02:31.930Z,82.13
2019-02-02T01:03:38.146Z,95.40
2019-02-02T01:04:44.364Z,79.43
2019-02-02T01:05:50.497Z,82.20
2019-02-02T01:06:57.328Z,74.90
2019-02-02T01:08:03.569Z,86.03
2019-02-02T01:09:12.080Z,77.87
2019-02-02T01:10:23.346Z,82.37
2019-02-02T01:11:29.298Z,81.50
2019-02-02T01:12:35.212Z,100.60
2019-02-02T01:13:41.222Z,81.43
2019-02-02T01:14:47.048Z,79.87
2019-02-02T01:15:52.736Z,89.10
2019-02-02T01:16:58.971Z,78.20
2019-02-02T01:18:05.684Z,85.85
2019-02-02T01:19:12.033Z,76.90
2019-02-02T01:20:19.007Z,82.27
2019-02-02T01:21:24.935Z,78.20
2019-02-02T01:22:30.947Z,90.73
2019-02-02T01:23:37.042Z,80.80
2019-02-02T01:24:43.248Z,72.03
2019-02-02T01:25:49.493Z,70.30
2019-02-02T01:26:56.290Z,70.03
2019-02-02T01:28:05.357Z,89.80
2019-02-02T01:29:10.488Z,113.22
2019-02-02T01:30:23.120Z,99.83
2019-02-02T01:31:29.328Z,73.53
2019-02-02T01:32:35.508Z,77.23
2019-02-02T01:33:41.612Z,73.80
2019-02-02T01:34:47.739Z,77.50
2019-02-02T01:35:54.082Z,72.90
2019-02-02T01:37:00.125Z,69.60
2019-02-02T01:38:06.262Z,68.05
2019-02-02T01:39:12.356Z,68.97
2019-02-02T01:40:26.361Z,70.45
2019-02-02T01:41:32.592Z,65.13
2019-02-02T01:42:38.715Z,72.67
2019-02-02T01:43:44.979Z,71.40
2019-02-02T01:44:51.117Z,70.87
2019-02-02T01:45:57.429Z,75.97
2019-02-02T01:47:03.587Z,70.40
2019-02-02T01:48:09.701Z,74.65
2019-02-02T01:49:15.814Z,73.62
2019-02-02T01:50:25.148Z,73.72
2019-02-02T01:51:31.375Z,71.47
2019-02-02T01:52:37.548Z,76.87
2019-02-02T01:53:43.717Z,86.27
2019-02-02T01:54:49.895Z,96.40
2019-02-02T01:55:56.072Z,75.50
2019-02-02T01:57:02.210Z,67.57
2019-02-02T01:58:16.368Z,73.45
2019-02-02T01:59:16.305Z,71.87
2019-02-02T02:00:32.220Z,69.85
2019-02-02T02:01:58.203Z,62.23
2019-02-02T02:03:05.269Z,79.95
2019-02-02T02:04:11.400Z,65.35
2019-02-02T02:05:17.513Z,96.40
2019-02-02T02:06:23.707Z,91.92
2019-02-02T02:07:29.853Z,73.33
2019-02-02T02:08:36.481Z,72.73
2019-02-02T02:09:42.879Z,69.03
2019-02-02T02:10:49.047Z,70.87
2019-02-02T02:11:55.028Z,68.87
2019-02-02T02:13:01.091Z,65.33
2019-02-02T02:14:07.434Z,67.53
2019-02-02T02:15:17.316Z,68.05
2019-02-02T02:16:23.770Z,69.53
2019-02-02T02:17:29.922Z,58.53
2019-02-02T02:18:36.359Z,61.33
2019-02-02T02:19:42.600Z,63.05
2019-02-02T02:20:49.032Z,63.70
2019-02-02T02:21:55.018Z,64.60
2019-02-02T02:23:01.041Z,65.53
2019-02-02T02:24:07.374Z,63.35
2019-02-02T02:25:19.553Z,64.97
2019-02-02T02:26:25.799Z,62.50
2019-02-02T02:27:31.911Z,60.23
2019-02-02T02:28:37.992Z,69.60
2019-02-02T02:29:44.477Z,71.43
2019-02-02T02:30:50.581Z,67.00
2019-02-02T02:31:56.794Z,62.90
2019-02-02T02:33:03.612Z,64.47
2019-02-02T02:34:09.732Z,64.47
2019-02-02T02:35:15.732Z,59.38
2019-02-02T02:36:21.693Z,74.27
2019-02-02T02:37:27.779Z,71.33
2019-02-02T02:38:33.776Z,62.63
2019-02-02T02:39:39.717Z,63.50
2019-02-02T02:40:45.556Z,63.30
2019-02-02T02:41:51.544Z,64.20
2019-02-02T02:42:57.640Z,59.97
2019-02-02T02:44:04.233Z,60.70
2019-02-02T02:45:12.585Z,65.65
2019-02-02T02:46:18.790Z,63.78
2019-02-02T02:47:25.103Z,69.33
2019-02-02T02:48:31.188Z,69.60
2019-02-02T02:49:37.604Z,63.67
2019-02-02T02:50:43.806Z,65.23
2019-02-02T02:51:49.926Z,57.50
2019-02-02T02:52:56.296Z,62.97
2019-02-02T02:54:02.464Z,65.50
2019-02-02T02:55:14.062Z,69.82
2019-02-02T02:56:20.224Z,62.20
2019-02-02T02:57:26.647Z,68.80
2019-02-02T02:58:40.827Z,61.90
2019-02-02T02:59:40.979Z,61.40
2019-02-02T03:00:47.432Z,68.47
2019-02-02T03:01:53.786Z,67.53
2019-02-02T03:02:59.600Z,62.33
2019-02-02T03:04:05.998Z,64.72
2019-02-02T03:05:12.831Z,62.35
2019-02-02T03:06:19.009Z,64.50
2019-02-02T03:07:25.099Z,60.63
2019-02-02T03:08:31.363Z,65.63
2019-02-02T03:09:37.785Z,66.87
2019-02-02T03:10:44.397Z,67.23
2019-02-02T03:11:50.578Z,64.10
2019-02-02T03:12:57.151Z,64.57
2019-02-02T03:14:03.612Z,72.43
2019-02-02T03:15:17.123Z,70.37
2019-02-02T03:16:23.392Z,68.25
2019-02-02T03:17:29.740Z,60.77
2019-02-02T03:18:37.241Z,67.78
2019-02-02T03:19:43.472Z,71.70
2019-02-02T03:20:49.741Z,66.90
2019-02-02T03:21:57.564Z,58.00
2019-02-02T03:23:03.779Z,64.00
2019-02-02T03:24:11.255Z,60.78
2019-02-02T03:25:25.930Z,64.40
2019-02-02T03:26:32.114Z,63.90
2019-02-02T03:27:38.438Z,63.33
2019-02-02T03:28:53.072Z,65.53
2019-02-02T03:29:52.681Z,63.20
2019-02-02T03:30:58.576Z,63.97
2019-02-02T03:32:05.568Z,66.30
2019-02-02T03:33:11.511Z,66.30
2019-02-02T03:34:17.992Z,66.47
2019-02-02T03:35:25.138Z,69.10
2019-02-02T03:36:31.024Z,66.82
2019-02-02T03:37:37.273Z,67.00
2019-02-02T03:38:43.458Z,69.00
2019-02-02T03:39:50.211Z,61.13
2019-02-02T03:40:56.361Z,69.53
2019-02-02T03:42:02.504Z,67.43
2019-02-02T03:43:08.604Z,64.25
2019-02-02T03:44:14.768Z,64.62
2019-02-02T03:45:23.740Z,70.28
2019-02-02T03:46:31.200Z,68.40
2019-02-02T03:47:37.279Z,60.33
2019-02-02T03:48:43.393Z,63.68
2019-02-02T03:49:49.625Z,66.03
2019-02-02T03:50:55.993Z,61.67
2019-02-02T03:52:02.271Z,65.23
2019-02-02T03:53:08.376Z,64.20
2019-02-02T03:54:14.553Z,63.83
2019-02-02T03:55:20.814Z,66.17
2019-02-02T03:56:26.961Z,62.27
2019-02-02T03:57:33.431Z,70.33
2019-02-02T03:58:39.603Z,64.67
2019-02-02T03:59:45.826Z,67.70
2019-02-02T04:00:51.973Z,68.20
2019-02-02T04:01:58.684Z,70.93
2019-02-02T04:03:05.991Z,64.85
2019-02-02T04:04:12.363Z,66.65
2019-02-02T04:05:23.221Z,71.60
2019-02-02T04:06:29.364Z,71.43
2019-02-02T04:07:35.561Z,68.27
2019-02-02T04:08:41.884Z,68.50
2019-02-02T04:09:47.719Z,70.40
2019-02-02T04:10:53.783Z,66.00
2019-02-02T04:11:59.892Z,67.47
2019-02-02T04:13:05.853Z,69.67
2019-02-02T04:14:12.014Z,68.97
2019-02-02T04:15:19.495Z,67.27
2019-02-02T04:16:25.599Z,70.33
2019-02-02T04:17:31.674Z,67.50
2019-02-02T04:18:37.860Z,70.50
2019-02-02T04:19:44.165Z,67.03
2019-02-02T04:20:49.999Z,73.57
2019-02-02T04:21:55.665Z,72.70
2019-02-02T04:23:01.390Z,68.87
2019-02-02T04:24:07.572Z,68.52
2019-02-02T04:25:13.744Z,67.00
2019-02-02T04:26:19.472Z,71.30
2019-02-02T04:27:25.491Z,69.73
2019-02-02T04:28:31.622Z,67.50
2019-02-02T04:29:37.638Z,66.70
2019-02-02T04:30:43.789Z,68.80
2019-02-02T04:31:49.723Z,63.77
2019-02-02T04:32:55.724Z,69.30
2019-02-02T04:34:01.574Z,64.67
2019-02-02T04:35:11.319Z,63.70
2019-02-02T04:36:17.568Z,68.35
2019-02-02T04:37:23.706Z,64.55
2019-02-02T04:38:29.804Z,65.47
2019-02-02T04:39:35.714Z,62.07
2019-02-02T04:40:41.672Z,66.60
2019-02-02T04:41:47.324Z,67.03
2019-02-02T04:42:53.352Z,74.87
2019-02-02T04:43:59.569Z,79.63
2019-02-02T04:45:08.725Z,80.72
2019-02-02T04:46:14.826Z,142.60
2019-02-02T04:47:21.276Z,88.55
2019-02-02T04:48:27.312Z,69.10
2019-02-02T04:49:33.252Z,67.77
2019-02-02T04:50:39.396Z,65.23
2019-02-02T04:51:45.783Z,63.77
2019-02-02T04:52:52.263Z,69.77
2019-02-02T04:53:58.618Z,66.43
2019-02-02T04:55:07.320Z,60.67
2019-02-02T04:56:13.184Z,63.38
2019-02-02T04:57:20.300Z,61.77
2019-02-02T04:58:26.449Z,65.40
2019-02-02T04:59:32.668Z,65.43
2019-02-02T05:00:38.948Z,62.27
2019-02-02T05:01:45.073Z,75.90
2019-02-02T05:02:51.108Z,77.30
2019-02-02T05:03:56.845Z,115.20
2019-02-02T05:05:02.643Z,78.03
2019-02-02T05:06:08.953Z,76.40
2019-02-02T05:07:15.177Z,69.12
2019-02-02T05:08:21.251Z,64.58
2019-02-02T05:09:27.076Z,60.90
2019-02-02T05:10:32.773Z,62.83
2019-02-02T05:11:38.515Z,58.80
2019-02-02T05:12:44.540Z,62.50
2019-02-02T05:13:50.909Z,61.37
2019-02-02T05:14:57.362Z,68.23
2019-02-02T05:16:03.463Z,69.20
2019-02-02T05:17:09.570Z,72.92
2019-02-02T05:18:16.213Z,68.25
2019-02-02T05:19:22.315Z,64.85
2019-02-02T05:20:28.485Z,66.47
2019-02-02T05:21:34.598Z,69.57
2019-02-02T05:22:40.850Z,60.52
2019-02-02T05:23:46.669Z,56.23
2019-02-02T05:24:53.092Z,55.40
2019-02-02T05:25:59.253Z,63.47
2019-02-02T05:27:05.883Z,69.82
2019-02-02T05:28:12.088Z,62.15
2019-02-02T05:29:18.533Z,60.15
2019-02-02T05:30:27.535Z,58.08
2019-02-02T05:31:33.769Z,57.90
2019-02-02T05:32:39.878Z,72.27
2019-02-02T05:33:46.719Z,57.90
2019-02-02T05:34:53.293Z,87.27
2019-02-02T05:35:59.438Z,71.90
2019-02-02T05:37:05.731Z,61.20
2019-02-02T05:38:11.927Z,59.58
2019-02-02T05:39:18.149Z,58.15
2019-02-02T05:40:25.199Z,52.48
2019-02-02T05:41:31.324Z,54.60
2019-02-02T05:42:37.694Z,52.90
2019-02-02T05:43:43.849Z,54.27
2019-02-02T05:44:49.673Z,55.47
2019-02-02T05:45:55.813Z,58.57
2019-02-02T05:47:01.717Z,54.47
2019-02-02T05:48:07.389Z,58.42
2019-02-02T05:49:13.660Z,58.38
2019-02-02T05:50:25.449Z,88.27
2019-02-02T05:51:31.562Z,65.40
2019-02-02T05:52:37.722Z,69.47
2019-02-02T05:53:43.617Z,73.63
2019-02-02T05:54:50.101Z,59.27
2019-02-02T05:55:56.354Z,56.57
2019-02-02T05:57:02.193Z,52.80
2019-02-02T05:58:08.338Z,53.17
2019-02-02T05:59:14.266Z,46.65
2019-02-02T06:00:34.005Z,49.80
2019-02-02T06:01:41.648Z,51.30
2019-02-02T06:02:47.801Z,52.30
2019-02-02T06:03:53.957Z,49.53
2019-02-02T06:05:00.448Z,54.03
2019-02-02T06:06:06.873Z,52.78
2019-02-02T06:07:13.212Z,53.17
2019-02-02T06:08:19.531Z,62.30
2019-02-02T06:09:25.834Z,54.93
2019-02-02T06:10:32.187Z,49.13
2019-02-02T06:11:38.272Z,50.30
2019-02-02T06:12:44.533Z,48.97
2019-02-02T06:13:50.636Z,47.70
2019-02-02T06:14:56.810Z,51.60
2019-02-02T06:16:03.308Z,47.73
2019-02-02T06:17:09.673Z,51.20
2019-02-02T06:18:15.898Z,48.98
2019-02-02T06:19:22.486Z,50.98
2019-02-02T06:20:29.695Z,49.47
2019-02-02T06:21:35.986Z,50.67
2019-02-02T06:22:42.270Z,53.53
2019-02-02T06:23:48.702Z,53.47
2019-02-02T06:24:54.920Z,52.67
2019-02-02T06:26:01.055Z,52.33
2019-02-02T06:27:07.050Z,50.75
2019-02-02T06:28:13.161Z,55.70
2019-02-02T06:29:19.252Z,51.70
2019-02-02T06:30:26.368Z,54.43
2019-02-02T06:31:32.644Z,53.08
2019-02-02T06:32:38.481Z,53.40
2019-02-02T06:33:44.822Z,53.50
2019-02-02T06:34:50.920Z,54.67
2019-02-02T06:35:57.420Z,54.60
2019-02-02T06:37:03.627Z,55.33
2019-02-02T06:38:09.822Z,55.23
2019-02-02T06:39:15.698Z,49.98
2019-02-02T06:40:21.833Z,50.28
2019-02-02T06:41:27.661Z,56.60
2019-02-02T06:42:33.633Z,55.00
2019-02-02T06:43:39.727Z,49.87
2019-02-02T06:44:46.026Z,54.00
2019-02-02T06:45:52.006Z,54.93
2019-02-02T06:46:58.060Z,44.97
2019-02-02T06:48:05.720Z,51.50
2019-02-02T06:49:12.507Z,49.83
2019-02-02T06:50:18.976Z,49.38
2019-02-02T06:51:25.415Z,52.40
2019-02-02T06:52:31.295Z,55.73
2019-02-02T06:53:37.410Z,43.57
2019-02-02T06:54:43.611Z,49.20
2019-02-02T06:55:49.718Z,49.97
2019-02-02T06:56:55.949Z,47.30
2019-02-02T06:58:01.821Z,48.43
2019-02-02T06:59:07.775Z,52.38
2019-02-02T07:00:26.556Z,46.42
2019-02-02T07:01:32.499Z,47.00
2019-02-02T07:02:38.252Z,50.07
2019-02-02T07:03:44.474Z,51.07
2019-02-02T07:04:50.585Z,44.60
2019-02-02T07:05:56.772Z,47.23
2019-02-02T07:07:02.803Z,48.93
2019-02-02T07:08:09.056Z,47.58
2019-02-02T07:09:15.457Z,40.38
2019-02-02T07:10:27.738Z,44.65
2019-02-02T07:11:33.556Z,41.83
2019-02-02T07:12:39.752Z,44.83
2019-02-02T07:13:45.933Z,43.13
2019-02-02T07:14:52.123Z,44.03
2019-02-02T07:15:58.050Z,47.30
2019-02-02T07:17:05.046Z,47.27
2019-02-02T07:18:10.989Z,45.55
2019-02-02T07:19:17.226Z,46.02
2019-02-02T07:20:23.171Z,46.55
2019-02-02T07:21:29.294Z,42.33
2019-02-02T07:22:35.446Z,44.57
2019-02-02T07:23:41.499Z,41.20
2019-02-02T07:24:50.065Z,37.97
2019-02-02T07:25:55.403Z,40.23
2019-02-02T07:27:01.683Z,38.47
2019-02-02T07:28:07.839Z,39.05
2019-02-02T07:29:14.079Z,41.92
2019-02-02T07:30:29.606Z,40.05
2019-02-02T07:31:32.732Z,47.83
2019-02-02T07:32:38.895Z,43.33
2019-02-02T07:33:45.086Z,45.63
2019-02-02T07:34:51.206Z,50.77
2019-02-02T07:35:57.313Z,47.48
2019-02-02T07:37:03.495Z,41.53
2019-02-02T07:38:09.597Z,39.90
2019-02-02T07:39:15.482Z,36.05
2019-02-02T07:40:22.085Z,35.45
2019-02-02T07:41:27.869Z,37.07
2019-02-02T07:42:33.817Z,38.70
2019-02-02T07:43:40.264Z,39.47
2019-02-02T07:44:46.509Z,33.75
2019-02-02T07:45:52.827Z,37.17
2019-02-02T07:46:59.246Z,36.43
2019-02-02T07:48:05.654Z,36.80
2019-02-02T07:49:12.019Z,37.55
2019-02-02T07:50:18.554Z,36.48
2019-02-02T07:51:24.830Z,41.30
2019-02-02T07:52:31.100Z,36.53
2019-02-02T07:53:37.371Z,35.93
2019-02-02T07:54:43.552Z,38.48
2019-02-02T07:55:49.532Z,38.13
2019-02-02T07:56:55.693Z,38.00
2019-02-02T07:58:01.854Z,36.53
2019-02-02T07:59:07.939Z,39.15
2019-02-02T08:00:39.644Z,38.15
2019-02-02T08:01:35.602Z,36.73
2019-02-02T08:02:41.754Z,62.30
2019-02-02T08:03:47.652Z,95.90
2019-02-02T08:04:53.791Z,72.73
2019-02-02T08:05:59.986Z,50.40
2019-02-02T08:07:06.207Z,45.92
2019-02-02T08:08:12.412Z,50.73
2019-02-02T08:09:18.658Z,52.08
2019-02-02T08:10:24.934Z,59.10
2019-02-02T08:11:31.228Z,45.03
2019-02-02T08:12:39.614Z,42.57
2019-02-02T08:13:45.879Z,41.83
2019-02-02T08:14:52.028Z,38.00
2019-02-02T08:15:59.582Z,34.00
2019-02-02T08:17:05.745Z,36.03
2019-02-02T08:18:11.715Z,34.85
2019-02-02T08:19:17.641Z,32.98
2019-02-02T08:20:24.339Z,38.00
2019-02-02T08:21:30.965Z,35.13
2019-02-02T08:22:37.099Z,39.70
2019-02-02T08:23:43.379Z,37.33
2019-02-02T08:24:49.337Z,38.13
2019-02-02T08:25:55.247Z,40.60
2019-02-02T08:27:01.064Z,40.80
2019-02-02T08:28:07.967Z,36.95
2019-02-02T08:29:14.160Z,45.90
2019-02-02T08:30:29.542Z,40.10
2019-02-02T08:31:35.432Z,47.07
2019-02-02T08:32:41.657Z,45.27
2019-02-02T08:33:47.963Z,53.60
2019-02-02T08:34:54.271Z,54.10
2019-02-02T08:36:03.907Z,48.03
2019-02-02T08:37:08.774Z,50.60
2019-02-02T08:38:14.968Z,51.35
2019-02-02T08:39:28.858Z,54.98
2019-02-02T08:40:29.014Z,57.37
2019-02-02T08:41:35.171Z,53.83
2019-02-02T08:42:41.415Z,53.70
2019-02-02T08:43:47.807Z,50.20
2019-02-02T08:44:54.055Z,52.23
2019-02-02T08:46:00.433Z,52.00
2019-02-02T08:47:06.521Z,51.28
2019-02-02T08:48:12.697Z,51.80
2019-02-02T08:49:18.781Z,49.40
2019-02-02T08:50:28.945Z,45.57
2019-02-02T08:51:35.211Z,45.37
2019-02-02T08:52:41.798Z,59.77
2019-02-02T08:53:48.035Z,61.43
2019-02-02T08:54:54.472Z,58.80
2019-02-02T08:56:00.471Z,47.57
2019-02-02T08:57:06.670Z,47.13
2019-02-02T08:58:12.924Z,47.60
2019-02-02T08:59:19.195Z,46.35
2019-02-02T09:00:25.435Z,46.47
2019-02-02T09:01:32.029Z,53.97
2019-02-02T09:02:38.196Z,48.03
2019-02-02T09:03:44.490Z,47.60
2019-02-02T09:04:50.751Z,46.50
2019-02-02T09:05:56.713Z,49.67
2019-02-02T09:07:02.637Z,47.20
2019-02-02T09:08:08.749Z,49.35
2019-02-02T09:09:15.039Z,47.83
2019-02-02T09:10:24.395Z,48.78
2019-02-02T09:11:31.325Z,57.27
2019-02-02T09:12:37.548Z,57.53
2019-02-02T09:13:43.519Z,76.57
2019-02-02T09:14:49.584Z,128.20
2019-02-02T09:15:55.953Z,185.07
2019-02-02T09:17:02.113Z,268.67
2019-02-02T09:18:08.563Z,217.15
2019-02-02T09:19:14.672Z,204.50
2019-02-02T09:20:20.827Z,193.43
2019-02-02T09:21:27.052Z,157.90
2019-02-02T09:22:33.157Z,138.97
2019-02-02T09:23:39.359Z,111.43
2019-02-02T09:24:45.566Z,87.20
2019-02-02T09:25:52.220Z,86.57
2019-02-02T09:26:58.574Z,66.40
2019-02-02T09:28:05.854Z,68.65
2019-02-02T09:29:11.979Z,60.33
2019-02-02T09:30:29.869Z,67.62
2019-02-02T09:31:35.969Z,79.27
2019-02-02T09:32:42.083Z,72.77
2019-02-02T09:33:48.172Z,64.03
2019-02-02T09:34:54.526Z,59.07
2019-02-02T09:36:00.874Z,56.87
2019-02-02T09:37:07.028Z,56.28
2019-02-02T09:38:13.136Z,67.27
2019-02-02T09:39:19.476Z,61.95
2019-02-02T09:40:26.770Z,47.63
2019-02-02T09:41:33.181Z,49.30
2019-02-02T09:42:39.566Z,45.73
2019-02-02T09:43:45.674Z,41.07
2019-02-02T09:44:51.835Z,43.30
2019-02-02T09:45:57.961Z,44.43
2019-02-02T09:47:04.290Z,47.77
2019-02-02T09:48:12.349Z,43.95
2019-02-02T09:49:18.788Z,58.40
2019-02-02T09:50:26.392Z,46.43
2019-02-02T09:51:32.614Z,50.08
2019-02-02T09:52:38.716Z,45.93
2019-02-02T09:53:44.870Z,47.60
2019-02-02T09:54:50.980Z,43.10
2019-02-02T09:55:57.336Z,43.03
2019-02-02T09:57:03.539Z,41.37
2019-02-02T09:58:10.248Z,39.13
2019-02-02T09:59:16.325Z,41.08
2019-02-02T10:00:29.358Z,42.73
2019-02-02T10:01:35.600Z,40.80
2019-02-02T10:02:41.911Z,40.67
2019-02-02T10:03:48.012Z,42.20
2019-02-02T10:04:54.185Z,44.50
2019-02-02T10:06:00.395Z,42.57
2019-02-02T10:07:06.665Z,42.73
2019-02-02T10:08:12.834Z,47.38
2019-02-02T10:09:18.931Z,40.92
2019-02-02T10:10:33.940Z,41.33
2019-02-02T10:11:40.601Z,45.30
2019-02-02T10:12:46.743Z,42.17
2019-02-02T10:13:53.014Z,42.00
2019-02-02T10:14:59.260Z,41.67
2019-02-02T10:16:05.627Z,45.20
2019-02-02T10:17:11.923Z,53.80
2019-02-02T10:18:18.162Z,53.05
2019-02-02T10:19:24.430Z,52.43
2019-02-02T10:20:32.654Z,50.50
2019-02-02T10:21:39.088Z,51.97
2019-02-02T10:22:45.322Z,48.03
2019-02-02T10:23:51.613Z,45.88
2019-02-02T10:24:57.582Z,51.37
2019-02-02T10:26:03.519Z,49.00
2019-02-02T10:27:09.566Z,50.40
2019-02-02T10:28:15.650Z,44.20
2019-02-02T10:29:21.576Z,55.38
2019-02-02T10:30:37.812Z,46.97
2019-02-02T10:31:43.921Z,50.37
2019-02-02T10:32:50.104Z,51.70
2019-02-02T10:33:56.308Z,47.43
2019-02-02T10:35:02.134Z,44.73
2019-02-02T10:36:08.131Z,56.63
2019-02-02T10:37:14.235Z,48.92
2019-02-02T10:38:20.447Z,48.28
2019-02-02T10:39:26.613Z,52.20
2019-02-02T10:40:32.964Z,46.23
2019-02-02T10:41:39.297Z,47.07
2019-02-02T10:42:45.205Z,44.70
2019-02-02T10:43:51.369Z,53.73
2019-02-02T10:44:57.643Z,58.60
2019-02-02T10:46:03.881Z,58.65
2019-02-02T10:47:10.240Z,85.07
2019-02-02T10:48:16.715Z,64.47
2019-02-02T10:49:22.799Z,53.55
2019-02-02T10:50:29.009Z,49.83
2019-02-02T10:51:35.283Z,50.80
2019-02-02T10:52:41.608Z,47.13
2019-02-02T10:53:47.705Z,49.45
2019-02-02T10:54:53.870Z,47.73
2019-02-02T10:55:59.995Z,53.20
2019-02-02T10:57:06.451Z,47.50
2019-02-02T10:58:12.621Z,74.20
2019-02-02T10:59:18.989Z,69.67
2019-02-02T11:00:32.419Z,86.72
2019-02-02T11:01:50.460Z,94.60
2019-02-02T11:02:46.656Z,65.62
2019-02-02T11:03:52.844Z,69.97
2019-02-02T11:04:59.322Z,93.45
2019-02-02T11:06:05.645Z,112.15
2019-02-02T11:07:12.104Z,98.17
2019-02-02T11:08:18.172Z,67.37
2019-02-02T11:13:57.563Z,74.60
2019-02-02T11:15:11.060Z,88.50
2019-02-02T11:16:17.035Z,115.75
2019-02-02T11:17:23.405Z,94.10
2019-02-02T11:18:29.754Z,91.10
2019-02-02T11:19:35.889Z,88.60
2019-02-02T11:20:41.554Z,84.73
2019-02-02T11:21:47.704Z,69.60
2019-02-02T11:22:53.739Z,65.43
2019-02-02T11:23:59.632Z,73.67
2019-02-02T11:25:09.706Z,82.12
2019-02-02T11:26:16.080Z,74.37
2019-02-02T11:27:22.658Z,58.55
2019-02-02T11:28:29.005Z,56.63
2019-02-02T11:29:35.341Z,62.33
2019-02-02T11:30:41.628Z,63.77
2019-02-02T11:31:47.593Z,70.00
2019-02-02T11:32:53.263Z,69.00
2019-02-02T11:33:59.347Z,67.07
2019-02-02T11:35:12.859Z,59.42
2019-02-02T11:36:18.728Z,60.70
2019-02-02T11:37:24.659Z,58.60
2019-02-02T11:38:30.910Z,70.27
2019-02-02T11:39:37.009Z,66.93
2019-02-02T11:40:42.834Z,77.87
2019-02-02T11:41:48.835Z,78.90
2019-02-02T11:42:54.829Z,81.03
2019-02-02T11:44:01.947Z,70.47
2019-02-02T11:45:12.467Z,81.65
2019-02-02T11:46:18.714Z,97.35
2019-02-02T11:47:24.558Z,88.97
2019-02-02T11:48:30.503Z,97.63
2019-02-02T11:49:36.466Z,90.53
2019-02-02T11:50:42.457Z,86.40
2019-02-02T11:51:48.494Z,83.97
2019-02-02T11:52:54.172Z,117.70
2019-02-02T11:54:00.172Z,95.37
2019-02-02T11:55:10.925Z,80.25
2019-02-02T11:56:17.234Z,112.55
2019-02-02T11:57:23.054Z,103.70
2019-02-02T11:58:28.994Z,104.23
2019-02-02T11:59:35.107Z,137.53
2019-02-02T12:00:43.609Z,95.63
2019-02-02T12:01:49.898Z,87.30
2019-02-02T12:02:55.671Z,83.00
2019-02-02T12:04:01.807Z,59.10
2019-02-02T12:05:09.140Z,62.55
2019-02-02T12:06:15.312Z,66.53
2019-02-02T12:07:21.337Z,64.25
2019-02-02T12:08:27.160Z,63.27
2019-02-02T12:09:33.096Z,70.62
2019-02-02T12:10:40.622Z,66.00
2019-02-02T12:11:46.552Z,59.43
2019-02-02T12:12:52.419Z,61.23
2019-02-02T12:13:58.257Z,59.03
2019-02-02T12:15:05.906Z,61.10
2019-02-02T12:16:11.663Z,61.50
2019-02-02T12:17:17.524Z,56.15
2019-02-02T12:18:23.692Z,58.68
2019-02-02T12:19:30.045Z,56.33
2019-02-02T12:20:35.919Z,57.97
2019-02-02T12:21:42.061Z,63.83
2019-02-02T12:22:48.023Z,68.17
2019-02-02T12:23:54.249Z,67.07
2019-02-02T12:25:01.884Z,73.07
2019-02-02T12:26:11.258Z,77.37
2019-02-02T12:27:17.442Z,76.17
2019-02-02T12:28:23.675Z,75.45
2019-02-02T12:29:29.777Z,68.80
2019-02-02T12:30:36.413Z,66.40
2019-02-02T12:31:42.278Z,67.80
2019-02-02T12:32:48.067Z,61.70
2019-02-02T12:33:54.061Z,66.40
2019-02-02T12:35:00.427Z,84.70
2019-02-02T12:36:06.590Z,76.40
2019-02-02T12:37:12.773Z,87.50
2019-02-02T12:38:19.026Z,100.12
2019-02-02T12:39:25.209Z,82.83
2019-02-02T12:40:31.560Z,91.03
2019-02-02T12:41:37.783Z,115.33
2019-02-02T12:42:45.562Z,104.47
2019-02-02T12:43:51.510Z,116.83
2019-02-02T12:44:58.584Z,103.15
2019-02-02T12:46:05.871Z,102.85
2019-02-02T12:47:11.826Z,111.95
2019-02-02T12:48:17.759Z,104.78
2019-02-02T12:49:23.871Z,94.77
2019-02-02T12:50:29.971Z,92.40
2019-02-02T12:51:36.136Z,78.77
2019-02-02T12:52:42.394Z,66.87
2019-02-02T12:53:48.709Z,74.07
2019-02-02T12:54:55.151Z,110.90
2019-02-02T12:56:01.342Z,90.77
2019-02-02T12:57:07.827Z,86.02
2019-02-02T12:58:13.675Z,78.85
2019-02-02T12:59:19.626Z,100.10
2019-02-02T13:00:25.754Z,93.60
2019-02-02T13:01:31.924Z,97.87
2019-02-02T13:02:38.563Z,135.23
2019-02-02T13:03:44.858Z,160.73
2019-02-02T13:04:51.218Z,141.83
2019-02-02T13:05:57.366Z,127.30
2019-02-02T13:07:03.540Z,105.77
2019-02-02T13:08:09.572Z,92.17
2019-02-02T13:09:15.597Z,86.45
2019-02-02T13:10:29.434Z,81.30
2019-02-02T13:11:35.812Z,81.90
2019-02-02T13:12:41.978Z,107.90
2019-02-02T13:13:48.174Z,101.97
2019-02-02T13:14:54.367Z,93.53
2019-02-02T13:16:00.462Z,83.13
2019-02-02T13:17:07.897Z,83.97
2019-02-02T13:18:14.012Z,82.55
2019-02-02T13:19:20.154Z,77.15
2019-02-02T13:20:26.679Z,84.50
2019-02-02T13:21:32.770Z,93.17
2019-02-02T13:22:38.796Z,91.77
2019-02-02T13:23:44.753Z,102.13
2019-02-02T13:24:50.942Z,102.47
2019-02-02T13:26:05.159Z,106.47
2019-02-02T13:27:05.870Z,92.47
2019-02-02T13:28:12.020Z,98.42
2019-02-02T13:29:17.871Z,91.08
2019-02-02T13:30:26.468Z,92.33
2019-02-02T13:31:32.402Z,89.00
2019-02-02T13:32:49.155Z,77.07
2019-02-02T13:33:46.505Z,75.97
2019-02-02T13:34:52.610Z,80.23
2019-02-02T13:35:58.795Z,72.13
2019-02-02T13:37:05.646Z,76.70
2019-02-02T13:38:11.788Z,75.85
2019-02-02T13:39:17.726Z,81.75
2019-02-02T13:40:24.794Z,104.15
2019-02-02T13:41:31.172Z,85.07
2019-02-02T13:42:37.642Z,84.53
2019-02-02T13:43:43.773Z,74.53
2019-02-02T13:44:49.936Z,79.50
2019-02-02T13:45:56.170Z,76.20
2019-02-02T13:47:02.557Z,77.10
2019-02-02T13:48:08.654Z,76.55
2019-02-02T13:49:14.889Z,96.05
2019-02-02T13:50:20.772Z,84.28
2019-02-02T13:51:26.855Z,86.07
2019-02-02T13:52:33.099Z,73.60
2019-02-02T13:53:38.901Z,103.07
2019-02-02T13:54:44.597Z,71.57
2019-02-02T13:55:50.821Z,76.13
2019-02-02T13:56:56.985Z,84.23
2019-02-02T13:58:03.103Z,74.37
2019-02-02T13:59:09.436Z,72.37
2019-02-02T14:00:20.709Z,71.60
2019-02-02T14:01:27.348Z,78.00
2019-02-02T14:02:33.814Z,65.83
2019-02-02T14:03:39.797Z,65.53
2019-02-02T14:04:45.491Z,66.77
2019-02-02T14:05:51.662Z,71.50
2019-02-02T14:06:58.009Z,67.97
2019-02-02T14:08:04.291Z,65.80
2019-02-02T14:09:10.569Z,61.90
2019-02-02T14:10:23.814Z,63.28
2019-02-02T14:11:30.036Z,66.30
2019-02-02T14:12:36.318Z,79.43
2019-02-02T14:13:42.587Z,93.67
2019-02-02T14:14:48.774Z,93.03
2019-02-02T14:15:55.049Z,91.37
2019-02-02T14:17:01.281Z,84.20
2019-02-02T14:18:07.394Z,79.35
2019-02-02T14:19:13.771Z,83.03
2019-02-02T14:20:20.759Z,79.37